sensor_id;sensor_type;location;lat;lon;timestamp;P1;durP1;ratioP1;P2;durP2;ratioP2
62475;SDS011;50739;45.670;11.936;2023-11-19T00:04:43;32.58;;;20.30;;
62475;SDS011;50739;45.670;11.936;2023-11-19T00:09:46;24.75;;;15.82;;
62475;SDS011;50739;45.670;11.936;2023-11-19T00:14:49;24.90;;;15.40;;
62475;SDS011;50739;45.670;11.936;2023-11-19T00:19:51;24.58;;;15.18;;
62475;SDS011;50739;45.670;11.936;2023-11-19T00:24:55;27.60;;;14.88;;
62475;SDS011;50739;45.670;11.936;2023-11-19T00:29:57;23.17;;;14.10;;
62475;SDS011;50739;45.670;11.936;2023-11-19T00:35:00;20.50;;;12.90;;
62475;SDS011;50739;45.670;11.936;2023-11-19T00:40:05;23.63;;;12.75;;
62475;SDS011;50739;45.670;11.936;2023-11-19T00:45:11;17.25;;;11.38;;
62475;SDS011;50739;45.670;11.936;2023-11-19T00:50:13;16.17;;;11.13;;
62475;SDS011;50739;45.670;11.936;2023-11-19T00:55:17;17.85;;;11.20;;
62475;SDS011;50739;45.670;11.936;2023-11-19T01:00:20;15.82;;;10.98;;
62475;SDS011;50739;45.670;11.936;2023-11-19T01:05:25;16.60;;;10.87;;
62475;SDS011;50739;45.670;11.936;2023-11-19T01:10:28;16.75;;;10.95;;
62475;SDS011;50739;45.670;11.936;2023-11-19T01:15:31;15.60;;;9.85;;
62475;SDS011;50739;45.670;11.936;2023-11-19T01:20:33;15.57;;;10.35;;
62475;SDS011;50739;45.670;11.936;2023-11-19T01:25:37;14.98;;;9.00;;
62475;SDS011;50739;45.670;11.936;2023-11-19T01:30:39;15.00;;;9.67;;
62475;SDS011;50739;45.670;11.936;2023-11-19T01:35:42;14.10;;;9.15;;
62475;SDS011;50739;45.670;11.936;2023-11-19T01:40:45;12.38;;;8.30;;
62475;SDS011;50739;45.670;11.936;2023-11-19T01:45:48;13.20;;;7.50;;
62475;SDS011;50739;45.670;11.936;2023-11-19T01:50:51;11.20;;;7.38;;
62475;SDS011;50739;45.670;11.936;2023-11-19T01:55:56;9.15;;;6.80;;
62475;SDS011;50739;45.670;11.936;2023-11-19T02:00:58;10.55;;;7.35;;
62475;SDS011;50739;45.670;11.936;2023-11-19T02:06:01;11.40;;;6.87;;
62475;SDS011;50739;45.670;11.936;2023-11-19T02:11:06;11.33;;;7.47;;
62475;SDS011;50739;45.670;11.936;2023-11-19T02:16:09;11.48;;;7.55;;
62475;SDS011;50739;45.670;11.936;2023-11-19T02:21:12;13.55;;;8.32;;
62475;SDS011;50739;45.670;11.936;2023-11-19T02:26:18;13.37;;;8.53;;
62475;SDS011;50739;45.670;11.936;2023-11-19T02:31:27;16.27;;;9.03;;
62475;SDS011;50739;45.670;11.936;2023-11-19T02:36:29;17.13;;;9.05;;
62475;SDS011;50739;45.670;11.936;2023-11-19T02:41:32;14.02;;;8.57;;
62475;SDS011;50739;45.670;11.936;2023-11-19T02:46:36;13.25;;;8.88;;
62475;SDS011;50739;45.670;11.936;2023-11-19T02:51:38;15.13;;;8.30;;
62475;SDS011;50739;45.670;11.936;2023-11-19T02:56:42;11.47;;;7.90;;
62475;SDS011;50739;45.670;11.936;2023-11-19T03:01:45;12.87;;;7.90;;
62475;SDS011;50739;45.670;11.936;2023-11-19T03:06:50;11.40;;;7.90;;
62475;SDS011;50739;45.670;11.936;2023-11-19T03:11:53;12.50;;;7.40;;
62475;SDS011;50739;45.670;11.936;2023-11-19T03:16:57;12.95;;;7.82;;
62475;SDS011;50739;45.670;11.936;2023-11-19T03:22:01;13.45;;;7.55;;
62475;SDS011;50739;45.670;11.936;2023-11-19T03:27:03;12.70;;;7.30;;
62475;SDS011;50739;45.670;11.936;2023-11-19T03:32:07;11.55;;;7.13;;
62475;SDS011;50739;45.670;11.936;2023-11-19T03:37:10;12.25;;;7.68;;
62475;SDS011;50739;45.670;11.936;2023-11-19T03:42:13;10.82;;;7.10;;
62475;SDS011;50739;45.670;11.936;2023-11-19T03:47:17;10.40;;;7.22;;
62475;SDS011;50739;45.670;11.936;2023-11-19T03:52:19;11.17;;;7.07;;
62475;SDS011;50739;45.670;11.936;2023-11-19T03:57:21;11.07;;;7.10;;
62475;SDS011;50739;45.670;11.936;2023-11-19T04:02:25;10.90;;;6.88;;
62475;SDS011;50739;45.670;11.936;2023-11-19T04:07:29;10.40;;;7.05;;
62475;SDS011;50739;45.670;11.936;2023-11-19T04:12:32;10.80;;;7.35;;
62475;SDS011;50739;45.670;11.936;2023-11-19T04:17:36;13.73;;;7.47;;
62475;SDS011;50739;45.670;11.936;2023-11-19T04:22:38;9.93;;;6.75;;
62475;SDS011;50739;45.670;11.936;2023-11-19T04:27:40;11.33;;;7.33;;
62475;SDS011;50739;45.670;11.936;2023-11-19T04:32:44;9.93;;;6.60;;
62475;SDS011;50739;45.670;11.936;2023-11-19T04:37:46;10.03;;;7.03;;
62475;SDS011;50739;45.670;11.936;2023-11-19T04:42:49;12.95;;;7.53;;
62475;SDS011;50739;45.670;11.936;2023-11-19T04:47:52;9.32;;;6.85;;
62475;SDS011;50739;45.670;11.936;2023-11-19T04:52:55;9.48;;;6.43;;
62475;SDS011;50739;45.670;11.936;2023-11-19T04:57:57;10.52;;;6.78;;
62475;SDS011;50739;45.670;11.936;2023-11-19T05:03:01;9.40;;;6.70;;
62475;SDS011;50739;45.670;11.936;2023-11-19T05:08:04;11.80;;;7.07;;
62475;SDS011;50739;45.670;11.936;2023-11-19T05:13:06;10.25;;;7.03;;
62475;SDS011;50739;45.670;11.936;2023-11-19T05:18:10;9.20;;;6.20;;
62475;SDS011;50739;45.670;11.936;2023-11-19T05:23:13;10.77;;;7.10;;
62475;SDS011;50739;45.670;11.936;2023-11-19T05:28:15;9.85;;;7.07;;
62475;SDS011;50739;45.670;11.936;2023-11-19T05:33:19;10.07;;;7.17;;
62475;SDS011;50739;45.670;11.936;2023-11-19T05:38:21;11.40;;;6.40;;
62475;SDS011;50739;45.670;11.936;2023-11-19T05:43:23;9.23;;;6.33;;
62475;SDS011;50739;45.670;11.936;2023-11-19T05:48:27;10.15;;;6.65;;
62475;SDS011;50739;45.670;11.936;2023-11-19T05:53:30;10.50;;;7.03;;
62475;SDS011;50739;45.670;11.936;2023-11-19T05:58:32;9.10;;;6.22;;
62475;SDS011;50739;45.670;11.936;2023-11-19T06:03:36;10.85;;;6.38;;
62475;SDS011;50739;45.670;11.936;2023-11-19T06:08:38;10.73;;;6.40;;
62475;SDS011;50739;45.670;11.936;2023-11-19T06:13:41;9.70;;;6.43;;
62475;SDS011;50739;45.670;11.936;2023-11-19T06:18:45;10.00;;;6.07;;
62475;SDS011;50739;45.670;11.936;2023-11-19T06:23:48;10.07;;;6.60;;
62475;SDS011;50739;45.670;11.936;2023-11-19T06:28:52;9.50;;;6.20;;
62475;SDS011;50739;45.670;11.936;2023-11-19T06:33:56;9.48;;;6.28;;
62475;SDS011;50739;45.670;11.936;2023-11-19T06:38:58;9.98;;;6.47;;
62475;SDS011;50739;45.670;11.936;2023-11-19T06:44:01;10.25;;;5.97;;
62475;SDS011;50739;45.670;11.936;2023-11-19T06:49:04;11.48;;;6.80;;
62475;SDS011;50739;45.670;11.936;2023-11-19T06:54:08;8.80;;;6.75;;
62475;SDS011;50739;45.670;11.936;2023-11-19T06:59:10;11.13;;;6.75;;
62475;SDS011;50739;45.670;11.936;2023-11-19T07:04:14;11.77;;;6.68;;
62475;SDS011;50739;45.670;11.936;2023-11-19T07:09:16;10.98;;;6.10;;
62475;SDS011;50739;45.670;11.936;2023-11-19T07:14:19;8.70;;;6.22;;
62475;SDS011;50739;45.670;11.936;2023-11-19T07:19:23;12.20;;;6.57;;
62475;SDS011;50739;45.670;11.936;2023-11-19T07:24:26;9.73;;;6.30;;
62475;SDS011;50739;45.670;11.936;2023-11-19T07:29:28;9.75;;;6.30;;
62475;SDS011;50739;45.670;11.936;2023-11-19T07:34:33;9.70;;;6.47;;
62475;SDS011;50739;45.670;11.936;2023-11-19T07:39:36;9.95;;;6.03;;
62475;SDS011;50739;45.670;11.936;2023-11-19T07:44:41;10.10;;;5.67;;
62475;SDS011;50739;45.670;11.936;2023-11-19T07:49:46;9.40;;;5.90;;
62475;SDS011;50739;45.670;11.936;2023-11-19T07:54:48;8.57;;;5.97;;
62475;SDS011;50739;45.670;11.936;2023-11-19T07:59:51;9.43;;;5.82;;
62475;SDS011;50739;45.670;11.936;2023-11-19T08:04:55;10.38;;;6.38;;
62475;SDS011;50739;45.670;11.936;2023-11-19T08:09:58;10.38;;;6.35;;
62475;SDS011;50739;45.670;11.936;2023-11-19T08:15:01;11.32;;;6.88;;
62475;SDS011;50739;45.670;11.936;2023-11-19T08:20:05;11.25;;;6.85;;
62475;SDS011;50739;45.670;11.936;2023-11-19T08:25:11;19.77;;;11.68;;
62475;SDS011;50739;45.670;11.936;2023-11-19T08:30:13;10.00;;;6.93;;
62475;SDS011;50739;45.670;11.936;2023-11-19T08:35:17;10.70;;;6.80;;
62475;SDS011;50739;45.670;11.936;2023-11-19T08:40:20;12.63;;;7.70;;
62475;SDS011;50739;45.670;11.936;2023-11-19T08:45:22;13.15;;;7.18;;
62475;SDS011;50739;45.670;11.936;2023-11-19T08:50:26;12.97;;;7.97;;
62475;SDS011;50739;45.670;11.936;2023-11-19T08:55:29;13.13;;;8.18;;
62475;SDS011;50739;45.670;11.936;2023-11-19T09:00:32;13.20;;;8.18;;
62475;SDS011;50739;45.670;11.936;2023-11-19T09:05:36;11.45;;;7.13;;
62475;SDS011;50739;45.670;11.936;2023-11-19T09:10:39;10.83;;;6.30;;
62475;SDS011;50739;45.670;11.936;2023-11-19T09:15:41;10.18;;;6.35;;
62475;SDS011;50739;45.670;11.936;2023-11-19T09:20:45;10.93;;;6.78;;
62475;SDS011;50739;45.670;11.936;2023-11-19T09:25:47;13.25;;;7.22;;
62475;SDS011;50739;45.670;11.936;2023-11-19T09:30:50;10.23;;;6.25;;
62475;SDS011;50739;45.670;11.936;2023-11-19T09:35:54;11.13;;;7.15;;
62475;SDS011;50739;45.670;11.936;2023-11-19T09:40:59;11.07;;;6.53;;
62475;SDS011;50739;45.670;11.936;2023-11-19T09:46:04;11.70;;;7.33;;
62475;SDS011;50739;45.670;11.936;2023-11-19T09:51:10;11.38;;;7.07;;
62475;SDS011;50739;45.670;11.936;2023-11-19T09:56:12;9.02;;;6.18;;
62475;SDS011;50739;45.670;11.936;2023-11-19T10:01:15;10.95;;;6.40;;
62475;SDS011;50739;45.670;11.936;2023-11-19T10:06:18;10.15;;;6.20;;
62475;SDS011;50739;45.670;11.936;2023-11-19T10:11:21;8.95;;;5.47;;
62475;SDS011;50739;45.670;11.936;2023-11-19T10:16:28;7.07;;;4.78;;
62475;SDS011;50739;45.670;11.936;2023-11-19T10:21:33;8.15;;;5.28;;
62475;SDS011;50739;45.670;11.936;2023-11-19T10:26:36;6.70;;;3.95;;
62475;SDS011;50739;45.670;11.936;2023-11-19T10:31:39;10.45;;;6.90;;
62475;SDS011;50739;45.670;11.936;2023-11-19T10:36:42;11.98;;;7.53;;
62475;SDS011;50739;45.670;11.936;2023-11-19T10:41:45;9.98;;;5.95;;
62475;SDS011;50739;45.670;11.936;2023-11-19T10:46:48;9.73;;;6.20;;
62475;SDS011;50739;45.670;11.936;2023-11-19T10:51:52;9.63;;;6.15;;
62475;SDS011;50739;45.670;11.936;2023-11-19T10:56:58;9.10;;;5.70;;
62475;SDS011;50739;45.670;11.936;2023-11-19T11:02:03;8.43;;;4.80;;
62475;SDS011;50739;45.670;11.936;2023-11-19T11:07:10;7.70;;;4.20;;
62475;SDS011;50739;45.670;11.936;2023-11-19T11:12:13;9.30;;;4.70;;
62475;SDS011;50739;45.670;11.936;2023-11-19T11:17:17;11.65;;;7.75;;
62475;SDS011;50739;45.670;11.936;2023-11-19T11:22:21;8.48;;;5.38;;
62475;SDS011;50739;45.670;11.936;2023-11-19T11:33:04;10.07;;;7.18;;
62475;SDS011;50739;45.670;11.936;2023-11-19T11:38:21;12.93;;;9.10;;
62475;SDS011;50739;45.670;11.936;2023-11-19T11:43:43;9.70;;;6.47;;
62475;SDS011;50739;45.670;11.936;2023-11-19T11:48:46;11.48;;;6.40;;
62475;SDS011;50739;45.670;11.936;2023-11-19T11:53:52;9.07;;;6.18;;
62475;SDS011;50739;45.670;11.936;2023-11-19T11:58:55;11.03;;;6.73;;
62475;SDS011;50739;45.670;11.936;2023-11-19T12:03:57;11.77;;;7.47;;
62475;SDS011;50739;45.670;11.936;2023-11-19T12:09:01;13.68;;;6.85;;
62475;SDS011;50739;45.670;11.936;2023-11-19T12:14:04;10.02;;;6.43;;
62475;SDS011;50739;45.670;11.936;2023-11-19T12:19:07;13.80;;;7.88;;
62475;SDS011;50739;45.670;11.936;2023-11-19T12:24:12;14.88;;;8.38;;
62475;SDS011;50739;45.670;11.936;2023-11-19T12:29:15;9.87;;;6.77;;
62475;SDS011;50739;45.670;11.936;2023-11-19T12:34:17;11.03;;;6.73;;
62475;SDS011;50739;45.670;11.936;2023-11-19T12:39:25;12.00;;;6.47;;
62475;SDS011;50739;45.670;11.936;2023-11-19T12:44:31;12.25;;;6.75;;
62475;SDS011;50739;45.670;11.936;2023-11-19T12:49:34;10.20;;;6.67;;
62475;SDS011;50739;45.670;11.936;2023-11-19T12:54:38;13.17;;;7.23;;
62475;SDS011;50739;45.670;11.936;2023-11-19T12:59:41;11.45;;;6.53;;
62475;SDS011;50739;45.670;11.936;2023-11-19T13:04:43;12.50;;;7.10;;
62475;SDS011;50739;45.670;11.936;2023-11-19T13:09:48;12.63;;;7.20;;
62475;SDS011;50739;45.670;11.936;2023-11-19T13:14:50;10.85;;;6.80;;
62475;SDS011;50739;45.670;11.936;2023-11-19T13:19:54;10.97;;;7.30;;
62475;SDS011;50739;45.670;11.936;2023-11-19T13:24:59;12.60;;;7.70;;
62475;SDS011;50739;45.670;11.936;2023-11-19T13:30:04;12.00;;;7.05;;
62475;SDS011;50739;45.670;11.936;2023-11-19T13:35:07;12.87;;;8.00;;
62475;SDS011;50739;45.670;11.936;2023-11-19T13:40:12;13.00;;;8.45;;
62475;SDS011;50739;45.670;11.936;2023-11-19T13:45:16;13.40;;;8.07;;
62475;SDS011;50739;45.670;11.936;2023-11-19T13:50:19;13.17;;;8.27;;
62475;SDS011;50739;45.670;11.936;2023-11-19T13:55:25;13.88;;;8.40;;
62475;SDS011;50739;45.670;11.936;2023-11-19T14:00:27;13.02;;;8.38;;
62475;SDS011;50739;45.670;11.936;2023-11-19T14:05:30;13.93;;;8.20;;
62475;SDS011;50739;45.670;11.936;2023-11-19T14:10:34;13.02;;;7.70;;
62475;SDS011;50739;45.670;11.936;2023-11-19T14:15:36;14.15;;;8.50;;
62475;SDS011;50739;45.670;11.936;2023-11-19T14:20:39;19.23;;;9.40;;
62475;SDS011;50739;45.670;11.936;2023-11-19T14:25:44;14.75;;;8.63;;
62475;SDS011;50739;45.670;11.936;2023-11-19T14:30:46;13.63;;;8.37;;
62475;SDS011;50739;45.670;11.936;2023-11-19T14:35:54;13.83;;;8.33;;
62475;SDS011;50739;45.670;11.936;2023-11-19T14:40:58;14.45;;;8.35;;
62475;SDS011;50739;45.670;11.936;2023-11-19T14:46:01;38.55;;;12.23;;
62475;SDS011;50739;45.670;11.936;2023-11-19T14:51:04;21.63;;;9.90;;
62475;SDS011;50739;45.670;11.936;2023-11-19T14:56:11;37.23;;;17.60;;
62475;SDS011;50739;45.670;11.936;2023-11-19T15:01:14;16.88;;;9.20;;
62475;SDS011;50739;45.670;11.936;2023-11-19T15:06:16;18.73;;;9.45;;
62475;SDS011;50739;45.670;11.936;2023-11-19T15:11:20;17.20;;;9.90;;
62475;SDS011;50739;45.670;11.936;2023-11-19T15:16:25;16.23;;;8.85;;
62475;SDS011;50739;45.670;11.936;2023-11-19T15:21:31;14.50;;;8.27;;
62475;SDS011;50739;45.670;11.936;2023-11-19T15:26:36;13.83;;;7.80;;
62475;SDS011;50739;45.670;11.936;2023-11-19T15:31:38;15.32;;;8.32;;
62475;SDS011;50739;45.670;11.936;2023-11-19T15:36:41;16.80;;;9.23;;
62475;SDS011;50739;45.670;11.936;2023-11-19T15:41:45;15.53;;;8.37;;
62475;SDS011;50739;45.670;11.936;2023-11-19T15:46:47;17.50;;;10.13;;
62475;SDS011;50739;45.670;11.936;2023-11-19T15:51:50;29.45;;;15.95;;
62475;SDS011;50739;45.670;11.936;2023-11-19T15:56:54;25.87;;;14.57;;
62475;SDS011;50739;45.670;11.936;2023-11-19T16:01:56;24.98;;;14.88;;
62475;SDS011;50739;45.670;11.936;2023-11-19T16:06:58;23.83;;;12.68;;
62475;SDS011;50739;45.670;11.936;2023-11-19T16:12:05;22.40;;;13.32;;
62475;SDS011;50739;45.670;11.936;2023-11-19T16:17:08;28.58;;;14.45;;
62475;SDS011;50739;45.670;11.936;2023-11-19T16:22:11;26.13;;;14.52;;
62475;SDS011;50739;45.670;11.936;2023-11-19T16:27:15;27.13;;;14.23;;
62475;SDS011;50739;45.670;11.936;2023-11-19T16:32:17;32.55;;;19.00;;
62475;SDS011;50739;45.670;11.936;2023-11-19T16:37:20;38.10;;;19.88;;
62475;SDS011;50739;45.670;11.936;2023-11-19T16:42:24;26.17;;;16.20;;
62475;SDS011;50739;45.670;11.936;2023-11-19T16:47:26;31.35;;;17.05;;
62475;SDS011;50739;45.670;11.936;2023-11-19T16:52:29;28.95;;;16.83;;
62475;SDS011;50739;45.670;11.936;2023-11-19T16:57:33;29.73;;;17.00;;
62475;SDS011;50739;45.670;11.936;2023-11-19T17:02:37;34.47;;;19.52;;
62475;SDS011;50739;45.670;11.936;2023-11-19T17:07:42;43.15;;;23.88;;
62475;SDS011;50739;45.670;11.936;2023-11-19T17:12:46;45.28;;;26.35;;
62475;SDS011;50739;45.670;11.936;2023-11-19T17:17:48;41.15;;;23.70;;
62475;SDS011;50739;45.670;11.936;2023-11-19T17:22:51;44.85;;;23.60;;
62475;SDS011;50739;45.670;11.936;2023-11-19T17:27:56;47.97;;;24.77;;
62475;SDS011;50739;45.670;11.936;2023-11-19T17:32:59;52.03;;;28.83;;
62475;SDS011;50739;45.670;11.936;2023-11-19T17:38:01;43.60;;;23.60;;
62475;SDS011;50739;45.670;11.936;2023-11-19T17:43:06;60.63;;;37.42;;
62475;SDS011;50739;45.670;11.936;2023-11-19T17:48:08;49.53;;;28.37;;
62475;SDS011;50739;45.670;11.936;2023-11-19T17:53:11;44.05;;;23.85;;
62475;SDS011;50739;45.670;11.936;2023-11-19T17:58:15;39.50;;;22.33;;
62475;SDS011;50739;45.670;11.936;2023-11-19T18:03:17;35.60;;;20.90;;
62475;SDS011;50739;45.670;11.936;2023-11-19T18:08:20;34.97;;;21.17;;
62475;SDS011;50739;45.670;11.936;2023-11-19T18:13:24;35.65;;;20.48;;
62475;SDS011;50739;45.670;11.936;2023-11-19T18:18:27;43.47;;;23.15;;
62475;SDS011;50739;45.670;11.936;2023-11-19T18:23:29;39.05;;;23.17;;
62475;SDS011;50739;45.670;11.936;2023-11-19T18:28:33;45.58;;;25.58;;
62475;SDS011;50739;45.670;11.936;2023-11-19T18:33:36;45.60;;;27.10;;
62475;SDS011;50739;45.670;11.936;2023-11-19T18:38:38;53.00;;;28.00;;
62475;SDS011;50739;45.670;11.936;2023-11-19T18:43:42;46.53;;;26.43;;
62475;SDS011;50739;45.670;11.936;2023-11-19T18:48:44;43.40;;;24.33;;
62475;SDS011;50739;45.670;11.936;2023-11-19T18:53:46;51.33;;;28.37;;
62475;SDS011;50739;45.670;11.936;2023-11-19T18:58:50;54.07;;;28.17;;
62475;SDS011;50739;45.670;11.936;2023-11-19T19:03:53;46.95;;;27.25;;
62475;SDS011;50739;45.670;11.936;2023-11-19T19:08:55;54.03;;;28.13;;
62475;SDS011;50739;45.670;11.936;2023-11-19T19:13:59;49.95;;;27.00;;
62475;SDS011;50739;45.670;11.936;2023-11-19T19:19:02;48.80;;;26.77;;
62475;SDS011;50739;45.670;11.936;2023-11-19T19:24:05;54.97;;;28.87;;
62475;SDS011;50739;45.670;11.936;2023-11-19T19:29:11;50.40;;;27.42;;
62475;SDS011;50739;45.670;11.936;2023-11-19T19:34:13;48.73;;;26.33;;
62475;SDS011;50739;45.670;11.936;2023-11-19T19:39:15;57.63;;;30.02;;
62475;SDS011;50739;45.670;11.936;2023-11-19T19:44:20;67.33;;;36.67;;
62475;SDS011;50739;45.670;11.936;2023-11-19T19:49:22;55.57;;;31.57;;
62475;SDS011;50739;45.670;11.936;2023-11-19T19:54:26;56.85;;;32.67;;
62475;SDS011;50739;45.670;11.936;2023-11-19T19:59:31;57.63;;;32.92;;
62475;SDS011;50739;45.670;11.936;2023-11-19T20:04:35;52.00;;;32.30;;
62475;SDS011;50739;45.670;11.936;2023-11-19T20:09:40;49.70;;;28.27;;
62475;SDS011;50739;45.670;11.936;2023-11-19T20:14:43;47.80;;;27.40;;
62475;SDS011;50739;45.670;11.936;2023-11-19T20:19:46;44.17;;;25.27;;
62475;SDS011;50739;45.670;11.936;2023-11-19T20:24:48;41.20;;;23.67;;
62475;SDS011;50739;45.670;11.936;2023-11-19T20:29:52;39.03;;;23.80;;
62475;SDS011;50739;45.670;11.936;2023-11-19T20:34:55;42.95;;;24.70;;
62475;SDS011;50739;45.670;11.936;2023-11-19T20:39:59;43.63;;;24.43;;
62475;SDS011;50739;45.670;11.936;2023-11-19T20:45:03;42.30;;;24.10;;
62475;SDS011;50739;45.670;11.936;2023-11-19T20:50:06;39.42;;;23.88;;
62475;SDS011;50739;45.670;11.936;2023-11-19T20:55:09;40.20;;;23.20;;
62475;SDS011;50739;45.670;11.936;2023-11-19T21:00:15;41.28;;;24.75;;
62475;SDS011;50739;45.670;11.936;2023-11-19T21:05:19;45.00;;;26.33;;
62475;SDS011;50739;45.670;11.936;2023-11-19T21:10:21;42.85;;;25.27;;
62475;SDS011;50739;45.670;11.936;2023-11-19T21:15:25;42.47;;;25.10;;
62475;SDS011;50739;45.670;11.936;2023-11-19T21:20:27;39.17;;;23.73;;
62475;SDS011;50739;45.670;11.936;2023-11-19T21:25:30;38.25;;;23.40;;
62475;SDS011;50739;45.670;11.936;2023-11-19T21:30:34;42.17;;;24.02;;
62475;SDS011;50739;45.670;11.936;2023-11-19T21:35:37;41.13;;;23.75;;
62475;SDS011;50739;45.670;11.936;2023-11-19T21:40:39;40.30;;;23.35;;
62475;SDS011;50739;45.670;11.936;2023-11-19T21:45:43;44.10;;;26.83;;
62475;SDS011;50739;45.670;11.936;2023-11-19T21:50:45;44.85;;;25.42;;
62475;SDS011;50739;45.670;11.936;2023-11-19T21:55:48;39.95;;;25.42;;
62475;SDS011;50739;45.670;11.936;2023-11-19T22:00:52;43.35;;;26.05;;
62475;SDS011;50739;45.670;11.936;2023-11-19T22:05:54;40.83;;;23.53;;
62475;SDS011;50739;45.670;11.936;2023-11-19T22:10:56;43.97;;;24.45;;
62475;SDS011;50739;45.670;11.936;2023-11-19T22:16:00;41.83;;;24.02;;
62475;SDS011;50739;45.670;11.936;2023-11-19T22:21:03;42.63;;;23.75;;
62475;SDS011;50739;45.670;11.936;2023-11-19T22:26:06;38.40;;;23.77;;
62475;SDS011;50739;45.670;11.936;2023-11-19T22:31:09;38.17;;;23.13;;
62475;SDS011;50739;45.670;11.936;2023-11-19T22:36:12;40.40;;;22.73;;
62475;SDS011;50739;45.670;11.936;2023-11-19T22:41:15;43.97;;;23.30;;
62475;SDS011;50739;45.670;11.936;2023-11-19T22:46:19;39.05;;;22.77;;
62475;SDS011;50739;45.670;11.936;2023-11-19T22:51:22;41.08;;;23.02;;
62475;SDS011;50739;45.670;11.936;2023-11-19T22:56:25;44.45;;;24.90;;
62475;SDS011;50739;45.670;11.936;2023-11-19T23:01:28;38.10;;;22.73;;
62475;SDS011;50739;45.670;11.936;2023-11-19T23:06:32;38.57;;;21.63;;
62475;SDS011;50739;45.670;11.936;2023-11-19T23:11:35;34.50;;;20.48;;
62475;SDS011;50739;45.670;11.936;2023-11-19T23:16:39;31.20;;;19.00;;
62475;SDS011;50739;45.670;11.936;2023-11-19T23:21:41;34.45;;;20.40;;
62475;SDS011;50739;45.670;11.936;2023-11-19T23:26:44;33.58;;;19.40;;
62475;SDS011;50739;45.670;11.936;2023-11-19T23:31:48;31.70;;;18.67;;
62475;SDS011;50739;45.670;11.936;2023-11-19T23:36:50;37.10;;;20.77;;
62475;SDS011;50739;45.670;11.936;2023-11-19T23:41:53;35.63;;;20.53;;
62475;SDS011;50739;45.670;11.936;2023-11-19T23:46:57;36.45;;;19.92;;
62475;SDS011;50739;45.670;11.936;2023-11-19T23:52:00;32.60;;;19.23;;
62475;SDS011;50739;45.670;11.936;2023-11-19T23:57:05;33.63;;;19.23;;
